createdAt,value
2018-04-19T00:00:48.054Z,9.60
2018-04-19T00:01:48.041Z,9.30
2018-04-19T00:02:48.040Z,9.40
2018-04-19T00:03:48.042Z,7.80
2018-04-19T00:04:48.035Z,7.50
2018-04-19T00:05:48.031Z,8.30
2018-04-19T00:06:48.021Z,8.00
2018-04-19T00:07:48.026Z,8.10
2018-04-19T00:08:48.025Z,8.30
2018-04-19T00:09:48.019Z,8.50
2018-04-19T00:10:48.011Z,8.30
2018-04-19T00:11:48.054Z,7.80
2018-04-19T00:12:48.003Z,8.90
2018-04-19T00:13:47.997Z,7.60
2018-04-19T00:14:47.997Z,8.40
2018-04-19T00:15:47.983Z,8.80
2018-04-19T00:16:47.988Z,9.30
2018-04-19T00:17:47.991Z,9.20
2018-04-19T00:18:47.975Z,9.10
2018-04-19T00:19:47.982Z,7.70
2018-04-19T00:20:47.971Z,9.50
2018-04-19T00:21:47.960Z,9.10
2018-04-19T00:22:47.980Z,7.70
2018-04-19T00:23:47.956Z,7.40
2018-04-19T00:24:47.961Z,8.10
2018-04-19T00:25:47.953Z,8.30
2018-04-19T00:26:47.948Z,7.80
2018-04-19T00:27:47.944Z,8.10
2018-04-19T00:28:47.937Z,8.30
2018-04-19T00:29:47.934Z,7.80
2018-04-19T00:30:47.934Z,7.60
2018-04-19T00:31:47.923Z,8.00
2018-04-19T00:32:47.913Z,8.50
2018-04-19T00:33:47.917Z,8.30
2018-04-19T00:34:47.922Z,8.20
2018-04-19T00:35:47.924Z,7.40
2018-04-19T00:36:47.905Z,7.70
2018-04-19T00:37:47.905Z,9.50
2018-04-19T00:38:47.906Z,9.90
2018-04-19T00:39:47.901Z,9.80
2018-04-19T00:40:47.886Z,9.70
2018-04-19T00:41:47.886Z,8.80
2018-04-19T00:42:47.882Z,8.60
2018-04-19T00:43:47.880Z,9.40
2018-04-19T00:44:47.882Z,11.10
2018-04-19T00:45:47.875Z,8.40
2018-04-19T00:46:47.863Z,9.70
2018-04-19T00:47:47.861Z,7.80
2018-04-19T00:48:47.863Z,9.20
2018-04-19T00:49:47.854Z,7.90
2018-04-19T00:50:47.853Z,7.50
2018-04-19T00:51:47.848Z,8.50
2018-04-19T00:52:47.838Z,8.90
2018-04-19T00:53:47.840Z,9.30
2018-04-19T00:54:47.838Z,8.10
2018-04-19T00:55:47.824Z,8.60
2018-04-19T00:56:47.825Z,8.20
2018-04-19T00:57:47.829Z,8.40
2018-04-19T00:58:47.819Z,9.00
2018-04-19T00:59:47.825Z,8.20
2018-04-19T01:00:47.816Z,8.60
2018-04-19T01:01:47.816Z,7.90
2018-04-19T01:02:47.794Z,7.70
2018-04-19T01:03:47.786Z,8.90
2018-04-19T01:04:47.796Z,7.80
2018-04-19T01:05:47.795Z,7.80
2018-04-19T01:06:47.791Z,9.20
2018-04-19T01:07:47.779Z,8.80
2018-04-19T01:08:47.782Z,8.10
2018-04-19T01:09:47.775Z,7.70
2018-04-19T01:10:47.767Z,8.70
2018-04-19T01:11:47.763Z,8.20
2018-04-19T01:12:47.760Z,7.90
2018-04-19T01:13:47.755Z,9.00
2018-04-19T01:14:47.745Z,8.30
2018-04-19T01:15:47.749Z,7.80
2018-04-19T01:16:47.746Z,7.40
2018-04-19T01:17:47.753Z,7.70
2018-04-19T01:18:47.730Z,10.10
2018-04-19T01:19:47.728Z,8.40
2018-04-19T01:20:47.722Z,9.00
2018-04-19T01:21:47.730Z,9.90
2018-04-19T01:22:47.711Z,9.60
2018-04-19T01:23:47.707Z,7.90
2018-04-19T01:24:47.719Z,7.70
2018-04-19T01:25:47.711Z,9.00
2018-04-19T01:26:47.696Z,7.70
2018-04-19T01:27:47.697Z,8.00
2018-04-19T01:28:47.695Z,10.00
2018-04-19T01:29:47.685Z,7.20
2018-04-19T02:01:50.592Z,11.20
2018-04-19T02:02:50.556Z,8.40
2018-04-19T02:04:43.455Z,8.10
2018-04-19T02:05:43.431Z,7.90
2018-04-19T02:06:43.437Z,8.90
2018-04-19T02:07:43.414Z,9.10
2018-04-19T02:08:43.412Z,9.50
2018-04-19T02:09:43.388Z,8.50
2018-04-19T02:10:43.389Z,9.40
2018-04-19T02:11:43.375Z,8.70
2018-04-19T02:12:43.373Z,8.00
2018-04-19T02:13:43.371Z,8.30
2018-04-19T02:14:43.352Z,7.70
2018-04-19T02:15:43.357Z,8.10
2018-04-19T02:16:43.348Z,8.50
2018-04-19T02:17:43.337Z,8.50
2018-04-19T02:18:43.335Z,10.20
2018-04-19T02:19:43.331Z,8.80
2018-04-19T02:20:43.321Z,9.50
2018-04-19T02:21:43.328Z,11.00
2018-04-19T02:22:43.309Z,9.90
2018-04-19T02:23:43.306Z,10.50
2018-04-19T02:24:43.301Z,9.80
2018-04-19T02:25:43.299Z,8.60
2018-04-19T02:26:43.293Z,8.70
2018-04-19T02:27:43.288Z,7.80
2018-04-19T02:28:43.280Z,8.00
2018-04-19T02:29:43.277Z,8.70
2018-04-19T02:30:43.272Z,10.20
2018-04-19T02:31:43.279Z,8.90
2018-04-19T02:32:43.271Z,9.80
2018-04-19T02:33:43.259Z,9.80
2018-04-19T02:34:43.253Z,8.90
2018-04-19T02:35:43.253Z,8.60
2018-04-19T02:36:43.250Z,9.30
2018-04-19T02:37:43.237Z,8.80
2018-04-19T02:38:43.235Z,8.00
2018-04-19T02:39:43.226Z,8.00
2018-04-19T02:40:43.226Z,8.50
2018-04-19T02:41:43.211Z,7.70
2018-04-19T02:42:43.215Z,9.80
2018-04-19T02:43:43.239Z,8.70
2018-04-19T02:44:43.204Z,8.50
2018-04-19T02:45:43.200Z,7.60
2018-04-19T02:46:43.191Z,8.60
2018-04-19T02:47:43.193Z,7.60
2018-04-19T02:48:43.181Z,7.60
2018-04-19T02:49:43.187Z,6.80
2018-04-19T02:50:43.179Z,7.10
2018-04-19T02:51:43.171Z,7.40
2018-04-19T02:52:43.188Z,7.20
2018-04-19T02:53:43.167Z,8.60
2018-04-19T02:54:43.191Z,7.30
2018-04-19T02:55:43.155Z,7.90
2018-04-19T02:56:43.143Z,7.60
2018-04-19T02:57:43.146Z,7.30
2018-04-19T02:58:43.129Z,10.10
2018-04-19T02:59:43.140Z,7.10
2018-04-19T03:00:43.141Z,7.00
2018-04-19T03:01:43.129Z,9.20
2018-04-19T03:02:43.124Z,6.40
2018-04-19T03:03:43.118Z,7.90
2018-04-19T03:04:43.117Z,7.20
2018-04-19T03:05:43.096Z,7.60
2018-04-19T03:06:43.099Z,6.70
2018-04-19T03:07:43.120Z,7.70
2018-04-19T03:08:43.114Z,7.60
2018-04-19T03:09:43.086Z,7.00
2018-04-19T03:10:43.084Z,8.20
2018-04-19T03:11:43.093Z,7.70
2018-04-19T03:12:43.075Z,8.30
2018-04-19T03:13:43.089Z,7.50
2018-04-19T03:14:43.052Z,7.80
2018-04-19T03:15:43.055Z,7.30
2018-04-19T03:16:43.074Z,7.00
2018-04-19T03:17:43.065Z,7.40
2018-04-19T03:18:43.048Z,8.00
2018-04-19T03:19:43.041Z,7.80
2018-04-19T03:20:43.030Z,7.50
2018-04-19T03:21:43.028Z,7.50
2018-04-19T03:22:43.024Z,7.30
2018-04-19T03:23:43.024Z,7.70
2018-04-19T03:24:43.004Z,8.50
2018-04-19T03:25:43.009Z,8.30
2018-04-19T03:26:43.001Z,8.70
2018-04-19T03:27:43.017Z,7.90
2018-04-19T03:28:42.989Z,7.70
2018-04-19T03:29:42.996Z,7.60
2018-04-19T03:30:42.984Z,7.30
2018-04-19T03:31:42.984Z,7.90
2018-04-19T03:32:42.977Z,8.20
2018-04-19T03:33:42.968Z,8.20
2018-04-19T03:34:42.966Z,7.40
2018-04-19T03:35:42.963Z,8.20
2018-04-19T03:36:42.955Z,7.70
2018-04-19T03:37:42.979Z,8.90
2018-04-19T03:38:42.942Z,7.80
2018-04-19T03:39:42.940Z,8.50
2018-04-19T03:40:42.962Z,9.10
2018-04-19T03:41:42.936Z,8.30
2018-04-19T03:42:42.928Z,8.40
2018-04-19T03:43:42.937Z,7.70
2018-04-19T03:44:42.924Z,8.60
2018-04-19T03:45:42.916Z,7.80
2018-04-19T03:46:42.909Z,7.60
2018-04-19T03:47:42.905Z,7.40
2018-04-19T03:48:42.898Z,7.80
2018-04-19T03:49:42.890Z,9.50
2018-04-19T03:50:42.906Z,8.20
2018-04-19T03:51:42.880Z,7.30
2018-04-19T03:52:42.874Z,8.40
2018-04-19T03:53:42.887Z,8.30
2018-04-19T03:54:42.864Z,8.00
2018-04-19T03:55:42.858Z,7.90
2018-04-19T03:56:42.854Z,9.40
2018-04-19T03:57:42.882Z,10.00
2018-04-19T03:58:42.848Z,8.40
2018-04-19T03:59:42.847Z,7.80
2018-04-19T04:00:42.832Z,9.40
2018-04-19T04:01:42.830Z,8.70
2018-04-19T04:02:42.831Z,9.10
2018-04-19T04:03:42.831Z,8.40
2018-04-19T04:04:42.815Z,8.30
2018-04-19T04:05:42.807Z,8.90
2018-04-19T04:06:42.811Z,8.50
2018-04-19T04:07:42.814Z,9.70
2018-04-19T04:08:42.787Z,9.30
2018-04-19T04:09:42.792Z,8.50
2018-04-19T04:10:42.793Z,8.60
2018-04-19T04:11:42.781Z,9.40
2018-04-19T04:12:42.787Z,8.60
2018-04-19T04:13:42.764Z,8.10
2018-04-19T04:14:42.772Z,8.90
2018-04-19T04:15:42.745Z,9.90
2018-04-19T04:16:42.746Z,8.70
2018-04-19T04:17:42.740Z,9.20
2018-04-19T04:18:42.755Z,8.70
2018-04-19T04:19:42.732Z,10.20
2018-04-19T04:20:42.726Z,9.10
2018-04-19T04:21:42.718Z,8.90
2018-04-19T04:22:42.720Z,8.90
2018-04-19T04:23:42.730Z,8.50
2018-04-19T04:24:42.744Z,9.00
2018-04-19T04:25:42.699Z,8.60
2018-04-19T04:26:42.687Z,10.40
2018-04-19T04:27:42.690Z,9.70
2018-04-19T04:28:42.682Z,8.90
2018-04-19T04:29:42.675Z,8.80
2018-04-19T04:30:42.679Z,8.70
2018-04-19T04:31:42.667Z,9.10
2018-04-19T04:32:42.655Z,8.90
2018-04-19T04:33:42.652Z,10.40
2018-04-19T04:34:42.671Z,8.80
2018-04-19T04:35:42.643Z,8.70
2018-04-19T04:36:42.642Z,9.60
2018-04-19T04:37:42.634Z,9.30
2018-04-19T04:38:42.628Z,9.40
2018-04-19T04:39:42.633Z,9.40
2018-04-19T04:40:42.633Z,9.70
2018-04-19T04:41:42.608Z,9.10
2018-04-19T04:42:42.606Z,9.60
2018-04-19T04:43:42.596Z,10.70
2018-04-19T04:44:42.594Z,10.30
2018-04-19T04:45:42.592Z,10.30
2018-04-19T04:46:42.584Z,12.60
2018-04-19T04:47:42.576Z,13.30
2018-04-19T04:48:42.590Z,16.50
2018-04-19T04:49:42.563Z,16.50
2018-04-19T04:50:42.556Z,13.80
2018-04-19T04:51:42.550Z,15.40
2018-04-19T04:52:42.540Z,16.10
2018-04-19T04:53:42.556Z,14.20
2018-04-19T04:54:42.560Z,10.00
2018-04-19T04:55:42.543Z,10.70
2018-04-19T04:56:42.516Z,10.40
2018-04-19T04:57:42.516Z,9.50
2018-04-19T04:58:42.519Z,11.10
2018-04-19T04:59:42.506Z,10.90
2018-04-19T05:00:42.500Z,11.50
2018-04-19T05:01:42.498Z,10.20
2018-04-19T05:02:42.495Z,9.00
2018-04-19T05:03:42.489Z,8.70
2018-04-19T05:04:42.475Z,9.50
2018-04-19T05:05:42.475Z,10.50
2018-04-19T05:06:42.472Z,9.90
2018-04-19T05:07:42.467Z,9.40
2018-04-19T05:08:42.460Z,10.20
2018-04-19T05:09:42.457Z,10.90
2018-04-19T05:10:42.447Z,10.70
2018-04-19T05:11:42.448Z,10.90
2018-04-19T05:12:42.447Z,9.70
2018-04-19T05:13:42.431Z,10.80
2018-04-19T05:14:42.432Z,8.70
2018-04-19T05:15:42.437Z,9.20
2018-04-19T05:16:42.412Z,8.70
2018-04-19T05:17:42.414Z,9.30
2018-04-19T05:18:42.477Z,9.90
2018-04-19T05:19:42.393Z,8.30
2018-04-19T05:20:42.399Z,9.30
2018-04-19T05:21:42.407Z,9.40
2018-04-19T05:22:42.392Z,9.80
2018-04-19T05:23:42.387Z,10.30
2018-04-19T05:24:42.371Z,9.90
2018-04-19T05:25:42.373Z,11.60
2018-04-19T05:26:42.374Z,9.80
2018-04-19T05:27:42.385Z,10.00
2018-04-19T05:28:42.389Z,8.60
2018-04-19T05:29:42.345Z,9.00
2018-04-19T05:30:42.349Z,8.60
2018-04-19T05:31:42.378Z,8.80
2018-04-19T05:32:42.338Z,8.90
2018-04-19T05:33:42.347Z,8.80
2018-04-19T05:34:42.331Z,8.40
2018-04-19T05:35:42.328Z,9.50
2018-04-19T05:36:42.320Z,8.80
2018-04-19T05:37:42.317Z,8.90
2018-04-19T05:38:42.314Z,8.40
2018-04-19T05:39:42.311Z,8.00
2018-04-19T05:40:42.308Z,9.90
2018-04-19T05:41:42.298Z,9.40
2018-04-19T05:42:42.302Z,8.80
2018-04-19T05:43:42.293Z,9.50
2018-04-19T05:44:42.306Z,8.20
2018-04-19T05:45:42.287Z,8.60
2018-04-19T05:46:42.276Z,8.70
2018-04-19T05:47:42.276Z,8.50
2018-04-19T05:48:42.271Z,8.80
2018-04-19T05:49:42.273Z,9.20
2018-04-19T05:50:42.261Z,8.30
2018-04-19T05:51:42.267Z,8.60
2018-04-19T05:52:42.257Z,8.90
2018-04-19T05:53:42.244Z,9.90
2018-04-19T05:54:42.247Z,8.70
2018-04-19T05:55:42.251Z,8.20
2018-04-19T05:56:42.253Z,8.90
2018-04-19T05:57:42.231Z,9.60
2018-04-19T05:58:42.248Z,8.70
2018-04-19T05:59:42.233Z,8.70
2018-04-19T06:00:42.233Z,9.10
2018-04-19T06:01:42.228Z,8.40
2018-04-19T06:02:42.224Z,9.50
2018-04-19T06:03:42.219Z,9.00
2018-04-19T06:04:42.213Z,9.20
2018-04-19T06:05:42.213Z,8.60
2018-04-19T06:06:42.209Z,9.40
2018-04-19T06:07:42.202Z,9.90
2018-04-19T06:08:42.231Z,8.60
2018-04-19T06:09:42.194Z,8.80
2018-04-19T06:10:42.200Z,10.20
2018-04-19T06:11:42.190Z,8.70
2018-04-19T06:12:42.189Z,9.20
2018-04-19T06:13:42.179Z,9.10
2018-04-19T06:14:42.189Z,9.40
2018-04-19T06:15:42.176Z,8.40
2018-04-19T06:16:42.173Z,8.40
2018-04-19T06:17:42.178Z,10.50
2018-04-19T06:18:42.172Z,8.90
2018-04-19T06:19:42.166Z,8.80
2018-04-19T06:20:42.166Z,8.20
2018-04-19T06:21:42.181Z,8.10
2018-04-19T06:22:42.160Z,9.10
2018-04-19T06:23:42.156Z,9.60
2018-04-19T06:24:42.153Z,9.10
2018-04-19T06:25:42.146Z,7.60
2018-04-19T06:26:42.146Z,7.60
2018-04-19T06:27:42.136Z,8.10
2018-04-19T06:28:42.140Z,9.20
2018-04-19T06:29:42.160Z,8.10
2018-04-19T06:30:42.142Z,9.30
2018-04-19T06:31:42.137Z,8.50
2018-04-19T06:32:42.137Z,8.60
2018-04-19T06:33:42.132Z,8.40
2018-04-19T06:34:42.122Z,8.10
2018-04-19T06:35:42.125Z,8.40
2018-04-19T06:36:42.132Z,8.00
2018-04-19T06:37:42.119Z,7.90
2018-04-19T06:38:42.116Z,8.30
2018-04-19T06:39:42.116Z,7.50
2018-04-19T06:40:42.139Z,7.50
2018-04-19T06:41:42.110Z,7.90
2018-04-19T06:42:42.104Z,8.70
2018-04-19T06:43:42.098Z,8.50
2018-04-19T06:44:42.106Z,8.20
2018-04-19T06:45:42.099Z,7.60
2018-04-19T06:46:42.094Z,8.20
2018-04-19T06:47:42.099Z,7.10
2018-04-19T06:48:42.085Z,7.60
2018-04-19T06:49:42.094Z,7.70
2018-04-19T06:50:42.096Z,7.70
2018-04-19T06:51:42.091Z,9.10
2018-04-19T06:52:42.089Z,7.40
2018-04-19T06:53:42.089Z,8.50
2018-04-19T06:54:42.079Z,7.40
2018-04-19T06:55:42.088Z,7.60
2018-04-19T06:56:42.093Z,8.30
2018-04-19T06:57:42.082Z,7.30
2018-04-19T06:58:42.073Z,7.80
2018-04-19T06:59:42.080Z,8.10
2018-04-19T07:00:42.094Z,8.10
2018-04-19T07:01:42.070Z,7.70
2018-04-19T07:02:42.070Z,7.30
2018-04-19T07:03:42.075Z,6.30
2018-04-19T07:04:42.071Z,9.30
2018-04-19T07:05:42.081Z,7.10
2018-04-19T07:06:42.064Z,6.20
2018-04-19T07:07:42.058Z,5.80
2018-04-19T07:08:42.063Z,6.40
2018-04-19T07:09:42.063Z,6.80
2018-04-19T07:10:42.062Z,5.80
2018-04-19T07:11:42.061Z,6.10
2018-04-19T07:12:42.047Z,6.20
2018-04-19T07:13:42.052Z,6.40
2018-04-19T07:14:42.059Z,5.50
2018-04-19T07:15:42.054Z,6.90
2018-04-19T07:16:42.056Z,5.10
2018-04-19T07:17:42.053Z,5.80
2018-04-19T07:18:42.054Z,5.90
2018-04-19T07:19:42.054Z,5.90
2018-04-19T07:20:42.052Z,6.10
2018-04-19T07:21:42.052Z,5.60
2018-04-19T07:22:42.046Z,5.80
2018-04-19T07:23:42.046Z,5.70
2018-04-19T07:24:42.060Z,5.50
2018-04-19T07:25:42.057Z,5.20
2018-04-19T07:26:42.053Z,4.80
2018-04-19T07:27:42.051Z,5.20
2018-04-19T07:28:42.054Z,5.40
2018-04-19T07:29:42.052Z,5.50
2018-04-19T07:30:42.060Z,5.70
2018-04-19T07:31:42.062Z,5.60
2018-04-19T07:32:42.067Z,6.30
2018-04-19T07:33:42.073Z,5.00
2018-04-19T07:34:42.077Z,5.70
2018-04-19T07:35:42.095Z,5.40
2018-04-19T07:36:42.091Z,5.50
2018-04-19T07:37:42.103Z,4.90
2018-04-19T07:38:42.105Z,4.80
2018-04-19T07:39:42.122Z,4.70
2018-04-19T07:40:42.124Z,4.30
2018-04-19T07:41:42.136Z,4.20
2018-04-19T07:42:42.169Z,4.40
2018-04-19T07:43:42.162Z,4.80
2018-04-19T07:44:42.170Z,4.80
2018-04-19T07:45:42.171Z,4.80
2018-04-19T07:46:42.179Z,3.90
2018-04-19T07:47:42.199Z,4.40
2018-04-19T07:48:42.217Z,4.30
2018-04-19T07:49:42.224Z,4.80
2018-04-19T07:50:42.228Z,6.70
2018-04-19T07:51:42.257Z,6.10
2018-04-19T07:52:42.259Z,4.60
2018-04-19T07:53:42.270Z,4.40
2018-04-19T07:54:42.297Z,4.20
2018-04-19T07:55:42.303Z,4.50
2018-04-19T07:56:42.320Z,5.20
2018-04-19T07:57:42.329Z,4.40
2018-04-19T07:58:42.356Z,4.70
2018-04-19T07:59:42.357Z,6.20
2018-04-19T08:00:42.378Z,4.70
2018-04-19T08:01:42.389Z,4.80
2018-04-19T08:02:42.405Z,5.00
2018-04-19T08:03:42.409Z,4.80
2018-04-19T08:04:42.429Z,5.40
2018-04-19T08:05:42.436Z,5.00
2018-04-19T08:06:42.457Z,5.40
2018-04-19T08:07:42.467Z,5.10
2018-04-19T08:08:42.486Z,5.00
2018-04-19T08:09:42.501Z,5.30
2018-04-19T08:10:42.512Z,5.10
2018-04-19T08:11:42.526Z,4.70
2018-04-19T08:12:42.561Z,4.80
2018-04-19T08:13:42.564Z,4.40
2018-04-19T08:14:42.577Z,4.80
2018-04-19T08:15:42.595Z,5.20
2018-04-19T08:16:42.620Z,5.50
2018-04-19T08:17:42.633Z,5.50
2018-04-19T08:18:42.640Z,5.40
2018-04-19T08:19:42.661Z,5.30
2018-04-19T08:20:42.683Z,5.10
2018-04-19T08:21:42.690Z,5.30
2018-04-19T08:22:42.701Z,5.90
2018-04-19T08:23:42.716Z,5.20
2018-04-19T08:24:42.746Z,5.20
2018-04-19T08:25:42.769Z,5.60
2018-04-19T08:26:42.769Z,5.30
2018-04-19T08:27:42.796Z,5.30
2018-04-19T08:28:42.811Z,5.70
2018-04-19T08:29:42.841Z,5.00
2018-04-19T08:30:42.854Z,5.30
2018-04-19T08:31:42.857Z,5.50
2018-04-19T08:32:42.874Z,5.60
2018-04-19T08:33:42.908Z,5.60
2018-04-19T08:34:42.904Z,6.10
2018-04-19T08:35:42.925Z,5.40
2018-04-19T08:36:42.938Z,5.70
2018-04-19T08:37:42.957Z,5.30
2018-04-19T08:38:42.968Z,5.10
2018-04-19T08:39:42.990Z,5.90
2018-04-19T08:40:43.003Z,5.50
2018-04-19T08:41:43.019Z,5.50
2018-04-19T08:42:43.042Z,5.80
2018-04-19T08:43:43.054Z,5.50
2018-04-19T08:44:43.084Z,5.60
2018-04-19T08:45:43.101Z,5.40
2018-04-19T08:46:43.117Z,5.00
2018-04-19T08:47:43.122Z,5.30
2018-04-19T08:48:43.160Z,5.70
2018-04-19T08:49:43.172Z,5.50
2018-04-19T08:50:43.285Z,5.80
2018-04-19T08:51:43.198Z,5.10
2018-04-19T08:52:43.209Z,5.70
2018-04-19T08:53:43.254Z,5.60
2018-04-19T08:54:43.258Z,5.70
2018-04-19T08:55:43.274Z,5.40
2018-04-19T08:56:43.283Z,5.30
2018-04-19T08:57:43.317Z,5.40
2018-04-19T08:58:43.340Z,5.10
2018-04-19T08:59:43.342Z,5.30
2018-04-19T09:00:43.364Z,5.30
2018-04-19T09:01:43.375Z,5.10
2018-04-19T09:02:43.413Z,5.30
2018-04-19T09:03:43.429Z,10.70
2018-04-19T09:04:43.449Z,5.20
2018-04-19T09:05:43.450Z,5.20
2018-04-19T09:06:43.480Z,5.60
2018-04-19T09:07:43.527Z,5.30
2018-04-19T09:08:43.514Z,5.50
2018-04-19T09:09:43.529Z,4.70
2018-04-19T09:10:43.554Z,5.10
2018-04-19T09:11:43.629Z,5.80
2018-04-19T09:15:15.436Z,5.40
2018-04-19T09:16:15.414Z,5.10
2018-04-19T09:18:08.368Z,5.10
2018-04-19T09:19:08.369Z,5.20
2018-04-19T09:21:01.433Z,5.30
2018-04-19T09:22:01.421Z,5.10
2018-04-19T09:23:54.476Z,5.10
2018-04-19T09:24:54.483Z,5.30
2018-04-19T09:26:47.554Z,5.30
2018-04-19T09:27:47.472Z,4.80
2018-04-19T09:29:40.560Z,4.90
2018-04-19T09:30:40.557Z,4.70
2018-04-19T09:32:33.548Z,4.80
2018-04-19T09:33:33.530Z,4.80
2018-04-19T09:35:26.664Z,5.00
2018-04-19T09:36:26.643Z,5.00
2018-04-19T09:38:19.700Z,5.20
2018-04-19T09:39:19.691Z,5.00
2018-04-19T09:41:12.738Z,5.40
2018-04-19T09:42:12.742Z,6.00
2018-04-19T09:44:05.778Z,5.10
2018-04-19T09:45:05.779Z,4.80
2018-04-19T09:46:58.775Z,4.40
2018-04-19T09:47:58.764Z,4.70
2018-04-19T09:49:51.782Z,4.70
2018-04-19T09:50:51.790Z,4.70
2018-04-19T09:52:44.794Z,4.60
2018-04-19T09:53:44.792Z,4.30
2018-04-19T09:55:37.811Z,4.50
2018-04-19T09:56:37.792Z,4.50
2018-04-19T09:58:30.955Z,4.60
2018-04-19T09:59:30.946Z,4.30
2018-04-19T10:01:23.993Z,4.60
2018-04-19T10:02:24.008Z,4.80
2018-04-19T10:04:17.018Z,4.50
2018-04-19T10:05:17.032Z,4.60
2018-04-19T10:07:10.058Z,4.20
2018-04-19T10:08:10.047Z,4.80
2018-04-19T10:10:03.025Z,4.70
2018-04-19T10:11:03.042Z,4.70
2018-04-19T10:12:56.044Z,4.50
2018-04-19T10:13:56.029Z,4.70
2018-04-19T10:15:49.013Z,4.90
2018-04-19T10:16:49.010Z,4.60
2018-04-19T10:18:42.058Z,4.30
2018-04-19T10:19:42.059Z,4.60
2018-04-19T10:21:35.038Z,5.90
2018-04-19T10:22:35.021Z,5.20
2018-04-19T10:24:28.129Z,5.40
2018-04-19T10:25:28.057Z,5.50
2018-04-19T10:27:21.106Z,5.60
2018-04-19T10:28:21.078Z,6.50
2018-04-19T10:29:21.104Z,5.00
2018-04-19T10:30:21.115Z,4.70
2018-04-19T10:31:21.132Z,4.70
2018-04-19T10:32:21.163Z,5.20
2018-04-19T10:33:21.183Z,5.00
2018-04-19T10:34:21.209Z,4.80
2018-04-19T10:35:21.229Z,5.20
2018-04-19T10:36:21.253Z,5.20
2018-04-19T10:37:21.265Z,5.10
2018-04-19T10:38:21.290Z,5.20
2018-04-19T10:39:21.306Z,4.80
2018-04-19T10:40:21.334Z,5.30
2018-04-19T10:41:21.340Z,4.80
2018-04-19T10:42:21.364Z,4.90
2018-04-19T10:43:21.386Z,5.00
2018-04-19T10:44:21.405Z,5.30
2018-04-19T10:45:21.437Z,4.60
2018-04-19T10:46:21.439Z,5.30
2018-04-19T10:47:21.464Z,5.20
2018-04-19T10:48:21.478Z,5.30
2018-04-19T10:49:21.507Z,4.60
2018-04-19T10:50:21.517Z,5.20
2018-04-19T10:51:21.543Z,5.30
2018-04-19T10:52:21.568Z,5.10
2018-04-19T10:53:21.646Z,4.80
2018-04-19T10:54:21.608Z,4.60
2018-04-19T10:55:21.625Z,4.70
2018-04-19T10:56:21.651Z,5.10
2018-04-19T10:57:21.657Z,4.80
2018-04-19T10:58:21.681Z,5.00
2018-04-19T10:59:21.713Z,4.70
2018-04-19T11:00:21.742Z,5.00
2018-04-19T11:01:21.792Z,6.30
2018-04-19T11:02:21.766Z,4.50
2018-04-19T11:03:21.780Z,5.20
2018-04-19T11:04:21.810Z,6.00
2018-04-19T11:05:21.835Z,4.60
2018-04-19T11:06:21.849Z,5.20
2018-04-19T11:07:21.880Z,4.80
2018-04-19T11:08:21.892Z,5.60
2018-04-19T11:09:21.914Z,4.90
2018-04-19T11:10:21.938Z,4.70
2018-04-19T11:11:21.962Z,4.70
2018-04-19T11:12:21.981Z,5.50
2018-04-19T11:13:21.998Z,5.10
2018-04-19T11:14:22.024Z,5.10
2018-04-19T11:15:22.043Z,4.50
2018-04-19T11:16:22.046Z,4.70
2018-04-19T11:17:22.076Z,4.50
2018-04-19T11:18:22.100Z,4.60
2018-04-19T11:19:22.120Z,4.80
2018-04-19T11:20:22.196Z,4.60
2018-04-19T11:21:22.151Z,4.90
2018-04-19T11:22:22.191Z,4.60
2018-04-19T11:23:22.315Z,4.20
2018-04-19T11:24:22.224Z,4.50
2018-04-19T11:25:22.236Z,5.20
2018-04-19T11:26:22.265Z,5.00
2018-04-19T11:27:22.277Z,4.90
2018-04-19T11:28:22.296Z,4.70
2018-04-19T11:29:22.322Z,5.00
2018-04-19T11:30:22.343Z,4.80
2018-04-19T11:31:22.369Z,5.20
2018-04-19T11:32:22.382Z,4.60
2018-04-19T11:33:22.396Z,4.70
2018-04-19T11:34:22.420Z,4.60
2018-04-19T11:35:22.439Z,4.50
2018-04-19T11:36:22.459Z,4.80
2018-04-19T11:37:22.481Z,4.30
2018-04-19T11:38:22.512Z,4.80
2018-04-19T11:39:22.511Z,5.30
2018-04-19T11:40:22.532Z,5.40
2018-04-19T11:41:22.556Z,5.20
2018-04-19T11:42:22.577Z,4.60
2018-04-19T11:43:22.607Z,4.70
2018-04-19T11:44:22.619Z,4.70
2018-04-19T11:45:22.651Z,4.40
2018-04-19T11:46:22.652Z,4.50
2018-04-19T11:47:22.687Z,4.20
2018-04-19T11:48:22.697Z,4.20
2018-04-19T11:49:22.726Z,4.20
2018-04-19T11:50:22.736Z,4.30
2018-04-19T11:51:22.749Z,4.30
2018-04-19T11:52:22.782Z,4.60
2018-04-19T11:53:22.795Z,4.60
2018-04-19T11:54:22.824Z,4.70
2018-04-19T11:55:22.831Z,4.50
2018-04-19T11:56:22.853Z,4.70
2018-04-19T11:57:22.868Z,4.70
2018-04-19T11:58:22.891Z,5.50
2018-04-19T11:59:22.908Z,4.00
2018-04-19T12:00:22.926Z,4.20
2018-04-19T12:01:22.947Z,4.30
2018-04-19T12:02:22.978Z,4.40
2018-04-19T12:03:22.989Z,4.40
2018-04-19T12:04:23.002Z,4.10
2018-04-19T12:05:23.020Z,4.30
2018-04-19T12:06:23.049Z,4.60
2018-04-19T12:07:23.055Z,4.30
2018-04-19T12:08:23.085Z,5.70
2018-04-19T12:09:23.107Z,3.90
2018-04-19T12:10:23.125Z,4.10
2018-04-19T12:11:23.133Z,3.80
2018-04-19T12:12:23.159Z,4.30
2018-04-19T12:13:23.176Z,4.10
2018-04-19T12:14:23.196Z,4.10
2018-04-19T12:15:23.211Z,4.10
2018-04-19T12:16:23.234Z,4.20
2018-04-19T12:17:23.251Z,4.20
2018-04-19T12:18:23.274Z,3.80
2018-04-19T12:19:23.301Z,4.20
2018-04-19T12:20:23.306Z,3.70
2018-04-19T12:21:23.324Z,3.30
2018-04-19T12:22:23.337Z,3.70
2018-04-19T12:23:23.367Z,3.70
2018-04-19T12:24:23.384Z,4.10
2018-04-19T12:25:23.401Z,3.90
2018-04-19T12:26:23.418Z,3.30
2018-04-19T12:27:23.443Z,3.50
2018-04-19T12:28:23.452Z,3.30
2018-04-19T12:29:23.480Z,3.40
2018-04-19T12:30:23.485Z,3.40
2018-04-19T12:31:23.496Z,3.20
2018-04-19T12:32:23.526Z,4.30
2018-04-19T12:33:23.533Z,4.70
2018-04-19T12:34:23.542Z,3.60
2018-04-19T12:35:23.557Z,3.80
2018-04-19T12:36:23.574Z,3.50
2018-04-19T12:37:23.585Z,3.80
2018-04-19T12:38:23.591Z,4.40
2018-04-19T12:39:23.603Z,3.90
2018-04-19T12:40:23.676Z,3.30
2018-04-19T12:41:23.675Z,3.40
2018-04-19T12:42:23.630Z,3.10
2018-04-19T12:43:23.651Z,3.60
2018-04-19T12:44:23.663Z,4.60
2018-04-19T12:45:23.646Z,4.10
2018-04-19T12:46:23.663Z,5.20
2018-04-19T12:47:23.700Z,3.60
2018-04-19T12:48:23.696Z,3.60
2018-04-19T12:49:23.681Z,3.70
2018-04-19T12:50:23.700Z,3.60
2018-04-19T12:51:23.697Z,3.50
2018-04-19T12:52:23.712Z,3.00
2018-04-19T12:53:23.713Z,3.20
2018-04-19T12:54:23.717Z,3.90
2018-04-19T12:55:23.796Z,3.20
2018-04-19T12:56:23.732Z,2.90
2018-04-19T12:57:23.750Z,3.10
2018-04-19T12:58:23.744Z,2.60
2018-04-19T12:59:23.748Z,3.00
2018-04-19T13:00:23.754Z,3.20
2018-04-19T13:01:23.766Z,3.30
2018-04-19T13:02:23.772Z,5.00
2018-04-19T13:03:23.783Z,3.50
2018-04-19T13:04:23.780Z,3.40
2018-04-19T13:05:23.786Z,3.30
2018-04-19T13:06:23.777Z,4.30
2018-04-19T13:07:23.800Z,4.80
2018-04-19T13:08:23.786Z,3.60
2018-04-19T13:09:23.805Z,3.50
2018-04-19T13:10:23.799Z,4.00
2018-04-19T13:11:23.805Z,3.40
2018-04-19T13:12:23.806Z,4.60
2018-04-19T13:13:23.813Z,3.40
2018-04-19T13:14:23.819Z,3.40
2018-04-19T13:15:23.822Z,4.10
2018-04-19T13:16:23.833Z,3.90
2018-04-19T13:17:23.850Z,3.20
2018-04-19T13:18:23.836Z,3.20
2018-04-19T13:19:23.829Z,6.20
2018-04-19T13:20:23.836Z,3.30
2018-04-19T13:21:23.839Z,3.30
2018-04-19T13:22:23.835Z,3.30
2018-04-19T13:23:23.857Z,4.30
2018-04-19T13:24:23.850Z,3.20
2018-04-19T13:25:23.859Z,3.50
2018-04-19T13:26:23.859Z,3.60
2018-04-19T13:27:23.860Z,3.80
2018-04-19T13:28:23.870Z,3.10
2018-04-19T13:29:23.861Z,3.10
2018-04-19T13:30:23.869Z,3.70
2018-04-19T13:31:23.880Z,4.10
2018-04-19T13:32:23.879Z,3.80
2018-04-19T13:33:23.890Z,4.30
2018-04-19T13:34:23.879Z,5.90
2018-04-19T13:35:23.900Z,9.00
2018-04-19T13:36:23.888Z,5.00
2018-04-19T13:37:23.900Z,4.30
2018-04-19T13:38:23.913Z,4.10
2018-04-19T13:39:23.906Z,3.40
2018-04-19T13:40:23.905Z,3.70
2018-04-19T13:41:23.897Z,3.00
2018-04-19T13:42:23.910Z,2.80
2018-04-19T13:43:23.920Z,2.50
2018-04-19T13:44:23.915Z,2.60
2018-04-19T13:45:23.941Z,3.60
2018-04-19T13:46:23.926Z,5.10
2018-04-19T13:47:23.924Z,5.60
2018-04-19T13:48:23.925Z,3.90
2018-04-19T13:49:23.956Z,2.80
2018-04-19T13:50:23.928Z,3.30
2018-04-19T13:51:23.936Z,3.50
2018-04-19T13:52:23.962Z,3.20
2018-04-19T13:53:23.945Z,3.20
2018-04-19T13:54:23.944Z,3.00
2018-04-19T13:55:23.938Z,3.50
2018-04-19T13:56:23.957Z,5.50
2018-04-19T13:57:23.947Z,2.80
2018-04-19T13:58:23.971Z,3.90
2018-04-19T13:59:23.977Z,2.70
2018-04-19T14:00:23.961Z,2.60
2018-04-19T14:01:23.965Z,2.60
2018-04-19T14:02:23.967Z,2.60
2018-04-19T14:03:23.969Z,2.60
2018-04-19T14:04:23.988Z,3.30
2018-04-19T14:05:23.971Z,4.10
2018-04-19T14:06:23.990Z,2.30
2018-04-19T14:07:23.981Z,3.90
2018-04-19T14:08:23.986Z,2.80
2018-04-19T14:09:23.987Z,4.60
2018-04-19T14:10:23.990Z,3.10
2018-04-19T14:11:23.997Z,2.60
2018-04-19T14:12:23.981Z,2.30
2018-04-19T14:13:24.027Z,2.90
2018-04-19T14:14:24.000Z,2.80